Terminal Aerodrome Forecast
Issued by NWS

Home | Current Version | Previous Version | Text Only | Print | Product List | Glossary On
Versions: 1 2 3 4 5 6 7 8 9 10 11 12 13 14
000
FTUS42 KTAE 262325
TAFECP
TAF
KECP 262325Z 2700/2724 19007KT P6SM SCT090
     FM270200 00000KT P6SM SCT250
     FM271400 11006KT P6SM FEW030
     FM271900 17009KT P6SM SCT060=

USA.gov is the U.S. government's official web portal to all federal, state and local government web resources and services.